sensor_id;sensor_type;location;lat;lon;timestamp;temperature;humidity
5675;DHT22;2860;54.284;10.158;2022-07-06T00:01:45;13.00;99.90
5675;DHT22;2860;54.284;10.158;2022-07-06T00:04:11;13.00;99.90
5675;DHT22;2860;54.284;10.158;2022-07-06T00:06:36;12.90;99.90
5675;DHT22;2860;54.284;10.158;2022-07-06T00:09:05;12.90;99.90
5675;DHT22;2860;54.284;10.158;2022-07-06T00:11:31;12.90;99.90
5675;DHT22;2860;54.284;10.158;2022-07-06T00:13:56;12.90;99.90
5675;DHT22;2860;54.284;10.158;2022-07-06T00:16:22;13.00;99.90
5675;DHT22;2860;54.284;10.158;2022-07-06T00:18:48;13.00;99.90
5675;DHT22;2860;54.284;10.158;2022-07-06T00:21:14;13.00;99.90
5675;DHT22;2860;54.284;10.158;2022-07-06T00:23:40;13.10;99.90
5675;DHT22;2860;54.284;10.158;2022-07-06T00:26:06;13.10;99.90
5675;DHT22;2860;54.284;10.158;2022-07-06T00:28:32;13.10;99.90
5675;DHT22;2860;54.284;10.158;2022-07-06T00:30:57;13.00;99.90
5675;DHT22;2860;54.284;10.158;2022-07-06T00:33:23;13.00;99.90
5675;DHT22;2860;54.284;10.158;2022-07-06T00:35:49;13.00;99.90
5675;DHT22;2860;54.284;10.158;2022-07-06T00:38:14;13.00;99.90
5675;DHT22;2860;54.284;10.158;2022-07-06T00:40:40;13.00;99.90
5675;DHT22;2860;54.284;10.158;2022-07-06T00:43:05;13.00;99.90
5675;DHT22;2860;54.284;10.158;2022-07-06T00:45:31;13.00;99.90
5675;DHT22;2860;54.284;10.158;2022-07-06T00:47:57;13.00;99.90
5675;DHT22;2860;54.284;10.158;2022-07-06T00:50:23;13.00;99.90
5675;DHT22;2860;54.284;10.158;2022-07-06T00:52:54;13.00;99.90
5675;DHT22;2860;54.284;10.158;2022-07-06T00:55:22;13.00;99.90
5675;DHT22;2860;54.284;10.158;2022-07-06T00:57:49;13.00;99.90
5675;DHT22;2860;54.284;10.158;2022-07-06T01:00:16;13.00;99.90
5675;DHT22;2860;54.284;10.158;2022-07-06T01:02:43;13.00;99.90
5675;DHT22;2860;54.284;10.158;2022-07-06T01:05:10;13.00;99.90
5675;DHT22;2860;54.284;10.158;2022-07-06T01:07:37;13.00;99.90
5675;DHT22;2860;54.284;10.158;2022-07-06T01:10:04;13.00;99.90
5675;DHT22;2860;54.284;10.158;2022-07-06T01:12:30;13.00;99.90
5675;DHT22;2860;54.284;10.158;2022-07-06T01:14:56;13.00;99.90
5675;DHT22;2860;54.284;10.158;2022-07-06T01:17:23;13.00;99.90
5675;DHT22;2860;54.284;10.158;2022-07-06T01:19:49;13.00;99.90
5675;DHT22;2860;54.284;10.158;2022-07-06T01:22:14;13.00;99.90
5675;DHT22;2860;54.284;10.158;2022-07-06T01:24:40;13.10;99.90
5675;DHT22;2860;54.284;10.158;2022-07-06T01:27:06;13.10;99.90
5675;DHT22;2860;54.284;10.158;2022-07-06T01:29:32;13.10;99.90
5675;DHT22;2860;54.284;10.158;2022-07-06T01:31:58;13.10;99.90
5675;DHT22;2860;54.284;10.158;2022-07-06T01:34:24;13.10;99.90
5675;DHT22;2860;54.284;10.158;2022-07-06T01:36:49;13.10;99.90
5675;DHT22;2860;54.284;10.158;2022-07-06T01:39:15;13.10;99.90
5675;DHT22;2860;54.284;10.158;2022-07-06T01:41:41;13.10;99.90
5675;DHT22;2860;54.284;10.158;2022-07-06T01:44:06;13.10;99.90
5675;DHT22;2860;54.284;10.158;2022-07-06T01:46:32;13.10;99.90
5675;DHT22;2860;54.284;10.158;2022-07-06T01:48:58;13.10;99.90
5675;DHT22;2860;54.284;10.158;2022-07-06T01:51:24;13.10;99.90
5675;DHT22;2860;54.284;10.158;2022-07-06T01:53:51;13.10;99.90
5675;DHT22;2860;54.284;10.158;2022-07-06T01:56:17;13.10;99.90
5675;DHT22;2860;54.284;10.158;2022-07-06T01:58:45;13.10;99.90
5675;DHT22;2860;54.284;10.158;2022-07-06T02:01:13;13.10;99.90
5675;DHT22;2860;54.284;10.158;2022-07-06T02:03:38;13.10;99.90
5675;DHT22;2860;54.284;10.158;2022-07-06T02:06:06;13.00;99.90
5675;DHT22;2860;54.284;10.158;2022-07-06T02:08:33;13.00;99.90
5675;DHT22;2860;54.284;10.158;2022-07-06T02:10:58;13.00;99.90
5675;DHT22;2860;54.284;10.158;2022-07-06T02:13:24;13.00;99.90
5675;DHT22;2860;54.284;10.158;2022-07-06T02:15:50;13.00;99.90
5675;DHT22;2860;54.284;10.158;2022-07-06T02:18:16;13.00;99.90
5675;DHT22;2860;54.284;10.158;2022-07-06T02:20:41;13.00;99.90
5675;DHT22;2860;54.284;10.158;2022-07-06T02:23:07;13.00;99.90
5675;DHT22;2860;54.284;10.158;2022-07-06T02:25:33;12.90;99.90
5675;DHT22;2860;54.284;10.158;2022-07-06T02:27:58;12.90;99.90
5675;DHT22;2860;54.284;10.158;2022-07-06T02:30:24;12.90;99.90
5675;DHT22;2860;54.284;10.158;2022-07-06T02:32:49;12.80;99.90
5675;DHT22;2860;54.284;10.158;2022-07-06T02:35:15;12.80;99.90
5675;DHT22;2860;54.284;10.158;2022-07-06T02:37:40;12.80;99.90
5675;DHT22;2860;54.284;10.158;2022-07-06T02:40:06;12.80;99.90
5675;DHT22;2860;54.284;10.158;2022-07-06T02:42:32;12.80;99.90
5675;DHT22;2860;54.284;10.158;2022-07-06T02:44:58;12.80;99.90
5675;DHT22;2860;54.284;10.158;2022-07-06T02:47:23;12.80;99.90
5675;DHT22;2860;54.284;10.158;2022-07-06T02:49:49;12.80;99.90
5675;DHT22;2860;54.284;10.158;2022-07-06T02:52:14;12.80;99.90
5675;DHT22;2860;54.284;10.158;2022-07-06T02:54:40;12.80;99.90
5675;DHT22;2860;54.284;10.158;2022-07-06T02:57:05;12.80;99.90
5675;DHT22;2860;54.284;10.158;2022-07-06T02:59:31;12.80;99.90
5675;DHT22;2860;54.284;10.158;2022-07-06T03:01:56;12.80;99.90
5675;DHT22;2860;54.284;10.158;2022-07-06T03:04:22;12.80;99.90
5675;DHT22;2860;54.284;10.158;2022-07-06T03:06:47;12.80;99.90
5675;DHT22;2860;54.284;10.158;2022-07-06T03:09:13;12.90;99.90
5675;DHT22;2860;54.284;10.158;2022-07-06T03:11:39;12.90;99.90
5675;DHT22;2860;54.284;10.158;2022-07-06T03:14:05;12.80;99.90
5675;DHT22;2860;54.284;10.158;2022-07-06T03:16:31;12.80;99.90
5675;DHT22;2860;54.284;10.158;2022-07-06T03:18:57;12.80;99.90
5675;DHT22;2860;54.284;10.158;2022-07-06T03:21:24;12.80;99.90
5675;DHT22;2860;54.284;10.158;2022-07-06T03:23:49;12.80;99.90
5675;DHT22;2860;54.284;10.158;2022-07-06T03:26:15;12.80;99.90
5675;DHT22;2860;54.284;10.158;2022-07-06T03:28:40;12.80;99.90
5675;DHT22;2860;54.284;10.158;2022-07-06T03:31:06;12.80;99.90
5675;DHT22;2860;54.284;10.158;2022-07-06T03:33:31;12.80;99.90
5675;DHT22;2860;54.284;10.158;2022-07-06T03:35:57;12.80;99.90
5675;DHT22;2860;54.284;10.158;2022-07-06T03:38:22;12.80;99.90
5675;DHT22;2860;54.284;10.158;2022-07-06T03:40:48;12.80;99.90
5675;DHT22;2860;54.284;10.158;2022-07-06T03:43:13;12.80;99.90
5675;DHT22;2860;54.284;10.158;2022-07-06T03:45:39;12.80;99.90
5675;DHT22;2860;54.284;10.158;2022-07-06T03:48:05;12.80;99.90
5675;DHT22;2860;54.284;10.158;2022-07-06T03:50:30;12.90;99.90
5675;DHT22;2860;54.284;10.158;2022-07-06T03:52:56;12.90;99.90
5675;DHT22;2860;54.284;10.158;2022-07-06T03:55:22;12.90;99.90
5675;DHT22;2860;54.284;10.158;2022-07-06T03:57:47;12.90;99.90
5675;DHT22;2860;54.284;10.158;2022-07-06T04:00:13;13.00;99.90
5675;DHT22;2860;54.284;10.158;2022-07-06T04:02:39;13.00;99.90
5675;DHT22;2860;54.284;10.158;2022-07-06T04:05:05;13.00;99.90
5675;DHT22;2860;54.284;10.158;2022-07-06T04:07:30;13.00;99.90
5675;DHT22;2860;54.284;10.158;2022-07-06T04:09:56;13.10;99.90
5675;DHT22;2860;54.284;10.158;2022-07-06T04:12:21;13.00;99.90
5675;DHT22;2860;54.284;10.158;2022-07-06T04:14:47;13.00;99.90
5675;DHT22;2860;54.284;10.158;2022-07-06T04:17:12;13.10;99.90
5675;DHT22;2860;54.284;10.158;2022-07-06T04:19:56;13.10;99.90
5675;DHT22;2860;54.284;10.158;2022-07-06T04:22:22;13.00;99.90
5675;DHT22;2860;54.284;10.158;2022-07-06T04:24:47;13.00;99.90
5675;DHT22;2860;54.284;10.158;2022-07-06T04:27:13;13.00;99.90
5675;DHT22;2860;54.284;10.158;2022-07-06T04:29:38;13.00;99.90
5675;DHT22;2860;54.284;10.158;2022-07-06T04:32:04;13.10;99.90
5675;DHT22;2860;54.284;10.158;2022-07-06T04:34:30;13.20;99.90
5675;DHT22;2860;54.284;10.158;2022-07-06T04:36:55;13.40;99.90
5675;DHT22;2860;54.284;10.158;2022-07-06T04:39:21;13.50;99.90
5675;DHT22;2860;54.284;10.158;2022-07-06T04:41:46;13.60;99.90
5675;DHT22;2860;54.284;10.158;2022-07-06T04:44:12;13.60;99.90
5675;DHT22;2860;54.284;10.158;2022-07-06T04:46:37;13.80;99.90
5675;DHT22;2860;54.284;10.158;2022-07-06T04:49:03;14.00;99.90
5675;DHT22;2860;54.284;10.158;2022-07-06T04:51:28;14.20;99.90
5675;DHT22;2860;54.284;10.158;2022-07-06T04:53:54;14.20;99.90
5675;DHT22;2860;54.284;10.158;2022-07-06T04:56:19;14.30;99.90
5675;DHT22;2860;54.284;10.158;2022-07-06T04:58:45;14.40;99.90
5675;DHT22;2860;54.284;10.158;2022-07-06T05:01:10;14.40;99.90
5675;DHT22;2860;54.284;10.158;2022-07-06T05:03:36;14.50;99.90
5675;DHT22;2860;54.284;10.158;2022-07-06T05:06:06;14.50;99.90
5675;DHT22;2860;54.284;10.158;2022-07-06T05:08:32;14.50;99.90
5675;DHT22;2860;54.284;10.158;2022-07-06T05:10:57;14.50;99.90
5675;DHT22;2860;54.284;10.158;2022-07-06T05:13:23;14.60;99.90
5675;DHT22;2860;54.284;10.158;2022-07-06T05:15:48;14.60;99.90
5675;DHT22;2860;54.284;10.158;2022-07-06T05:18:14;14.60;99.90
5675;DHT22;2860;54.284;10.158;2022-07-06T05:20:40;14.60;99.90
5675;DHT22;2860;54.284;10.158;2022-07-06T05:23:05;14.60;99.90
5675;DHT22;2860;54.284;10.158;2022-07-06T05:25:31;14.70;99.90
5675;DHT22;2860;54.284;10.158;2022-07-06T05:27:58;14.70;99.90
5675;DHT22;2860;54.284;10.158;2022-07-06T05:30:24;14.80;99.90
5675;DHT22;2860;54.284;10.158;2022-07-06T05:32:49;14.90;99.90
5675;DHT22;2860;54.284;10.158;2022-07-06T05:35:15;15.00;99.90
5675;DHT22;2860;54.284;10.158;2022-07-06T05:37:41;15.10;99.90
5675;DHT22;2860;54.284;10.158;2022-07-06T05:40:07;15.20;99.90
5675;DHT22;2860;54.284;10.158;2022-07-06T05:42:33;15.20;99.90
5675;DHT22;2860;54.284;10.158;2022-07-06T05:44:58;15.20;99.90
5675;DHT22;2860;54.284;10.158;2022-07-06T05:47:24;15.30;99.90
5675;DHT22;2860;54.284;10.158;2022-07-06T05:50:08;15.30;99.90
5675;DHT22;2860;54.284;10.158;2022-07-06T05:52:44;15.30;99.90
5675;DHT22;2860;54.284;10.158;2022-07-06T05:55:12;15.40;99.90
5675;DHT22;2860;54.284;10.158;2022-07-06T05:57:39;15.50;99.90
5675;DHT22;2860;54.284;10.158;2022-07-06T06:00:06;15.60;99.90
5675;DHT22;2860;54.284;10.158;2022-07-06T06:02:42;15.60;99.90
5675;DHT22;2860;54.284;10.158;2022-07-06T06:05:09;15.60;99.90
5675;DHT22;2860;54.284;10.158;2022-07-06T06:07:36;15.60;99.90
5675;DHT22;2860;54.284;10.158;2022-07-06T06:10:04;15.70;99.90
5675;DHT22;2860;54.284;10.158;2022-07-06T06:12:30;15.80;99.90
5675;DHT22;2860;54.284;10.158;2022-07-06T06:14:56;15.90;99.90
5675;DHT22;2860;54.284;10.158;2022-07-06T06:17:21;15.90;99.90
5675;DHT22;2860;54.284;10.158;2022-07-06T06:19:47;16.00;99.90
5675;DHT22;2860;54.284;10.158;2022-07-06T06:22:13;16.10;99.90
5675;DHT22;2860;54.284;10.158;2022-07-06T06:24:39;16.10;99.90
5675;DHT22;2860;54.284;10.158;2022-07-06T06:27:04;16.20;99.90
5675;DHT22;2860;54.284;10.158;2022-07-06T06:29:30;16.20;99.90
5675;DHT22;2860;54.284;10.158;2022-07-06T06:31:56;16.30;99.90
5675;DHT22;2860;54.284;10.158;2022-07-06T06:34:21;16.30;99.90
5675;DHT22;2860;54.284;10.158;2022-07-06T06:36:47;16.40;99.90
5675;DHT22;2860;54.284;10.158;2022-07-06T06:39:12;16.50;99.90
5675;DHT22;2860;54.284;10.158;2022-07-06T06:41:38;16.60;99.90
5675;DHT22;2860;54.284;10.158;2022-07-06T06:44:04;16.60;99.90
5675;DHT22;2860;54.284;10.158;2022-07-06T06:46:29;16.50;99.90
5675;DHT22;2860;54.284;10.158;2022-07-06T06:48:55;16.50;99.90
5675;DHT22;2860;54.284;10.158;2022-07-06T06:51:20;16.40;99.90
5675;DHT22;2860;54.284;10.158;2022-07-06T06:53:46;16.30;99.90
5675;DHT22;2860;54.284;10.158;2022-07-06T06:56:12;16.40;99.90
5675;DHT22;2860;54.284;10.158;2022-07-06T06:58:37;16.30;99.90
5675;DHT22;2860;54.284;10.158;2022-07-06T07:01:03;16.30;99.90
5675;DHT22;2860;54.284;10.158;2022-07-06T07:03:30;16.50;99.90
5675;DHT22;2860;54.284;10.158;2022-07-06T07:05:55;16.70;99.90
5675;DHT22;2860;54.284;10.158;2022-07-06T07:08:21;16.90;99.90
5675;DHT22;2860;54.284;10.158;2022-07-06T07:10:46;17.10;99.90
5675;DHT22;2860;54.284;10.158;2022-07-06T07:13:12;17.30;99.90
5675;DHT22;2860;54.284;10.158;2022-07-06T07:15:37;17.20;99.90
5675;DHT22;2860;54.284;10.158;2022-07-06T07:18:03;17.00;99.90
5675;DHT22;2860;54.284;10.158;2022-07-06T07:20:28;17.00;99.90
5675;DHT22;2860;54.284;10.158;2022-07-06T07:22:55;17.00;99.90
5675;DHT22;2860;54.284;10.158;2022-07-06T07:25:21;17.20;99.90
5675;DHT22;2860;54.284;10.158;2022-07-06T07:27:47;17.30;99.90
5675;DHT22;2860;54.284;10.158;2022-07-06T07:30:13;17.50;99.90
5675;DHT22;2860;54.284;10.158;2022-07-06T07:32:38;17.50;99.90
5675;DHT22;2860;54.284;10.158;2022-07-06T07:35:06;17.60;99.90
5675;DHT22;2860;54.284;10.158;2022-07-06T07:37:32;17.80;99.90
5675;DHT22;2860;54.284;10.158;2022-07-06T07:39:58;17.90;99.90
5675;DHT22;2860;54.284;10.158;2022-07-06T07:42:24;18.20;99.90
5675;DHT22;2860;54.284;10.158;2022-07-06T07:44:49;18.30;99.90
5675;DHT22;2860;54.284;10.158;2022-07-06T07:47:15;18.40;99.90
5675;DHT22;2860;54.284;10.158;2022-07-06T07:49:40;18.50;99.90
5675;DHT22;2860;54.284;10.158;2022-07-06T07:52:06;18.40;99.90
5675;DHT22;2860;54.284;10.158;2022-07-06T07:54:32;18.50;99.90
5675;DHT22;2860;54.284;10.158;2022-07-06T07:56:58;18.70;99.90
5675;DHT22;2860;54.284;10.158;2022-07-06T07:59:23;18.90;99.90
5675;DHT22;2860;54.284;10.158;2022-07-06T08:01:49;19.30;99.90
5675;DHT22;2860;54.284;10.158;2022-07-06T08:04:14;19.50;99.90
5675;DHT22;2860;54.284;10.158;2022-07-06T08:06:40;19.30;99.90
5675;DHT22;2860;54.284;10.158;2022-07-06T08:09:06;19.10;99.90
5675;DHT22;2860;54.284;10.158;2022-07-06T08:11:33;19.10;99.90
5675;DHT22;2860;54.284;10.158;2022-07-06T08:13:59;19.10;99.90
5675;DHT22;2860;54.284;10.158;2022-07-06T08:16:25;19.20;99.90
5675;DHT22;2860;54.284;10.158;2022-07-06T08:18:51;19.30;99.90
5675;DHT22;2860;54.284;10.158;2022-07-06T08:21:16;19.20;99.90
5675;DHT22;2860;54.284;10.158;2022-07-06T08:23:42;18.80;99.90
5675;DHT22;2860;54.284;10.158;2022-07-06T08:26:07;18.50;99.90
5675;DHT22;2860;54.284;10.158;2022-07-06T08:28:33;18.30;99.90
5675;DHT22;2860;54.284;10.158;2022-07-06T08:30:58;18.10;99.90
5675;DHT22;2860;54.284;10.158;2022-07-06T08:33:24;17.80;99.90
5675;DHT22;2860;54.284;10.158;2022-07-06T08:35:50;17.40;99.90
5675;DHT22;2860;54.284;10.158;2022-07-06T08:38:15;17.10;99.90
5675;DHT22;2860;54.284;10.158;2022-07-06T08:40:43;17.10;99.90
5675;DHT22;2860;54.284;10.158;2022-07-06T08:43:10;17.10;99.90
5675;DHT22;2860;54.284;10.158;2022-07-06T08:45:35;17.10;99.90
5675;DHT22;2860;54.284;10.158;2022-07-06T08:48:05;17.20;99.90
5675;DHT22;2860;54.284;10.158;2022-07-06T08:50:33;17.30;99.90
5675;DHT22;2860;54.284;10.158;2022-07-06T08:52:59;17.40;99.90
5675;DHT22;2860;54.284;10.158;2022-07-06T08:55:26;17.30;99.90
5675;DHT22;2860;54.284;10.158;2022-07-06T08:57:54;17.10;99.90
5675;DHT22;2860;54.284;10.158;2022-07-06T09:00:21;17.20;99.90
5675;DHT22;2860;54.284;10.158;2022-07-06T09:02:48;17.40;99.90
5675;DHT22;2860;54.284;10.158;2022-07-06T09:05:16;17.60;99.90
5675;DHT22;2860;54.284;10.158;2022-07-06T09:07:43;18.00;99.90
5675;DHT22;2860;54.284;10.158;2022-07-06T09:10:11;18.10;99.90
5675;DHT22;2860;54.284;10.158;2022-07-06T09:12:37;18.20;99.90
5675;DHT22;2860;54.284;10.158;2022-07-06T09:15:03;18.30;99.90
5675;DHT22;2860;54.284;10.158;2022-07-06T09:17:29;18.50;99.90
5675;DHT22;2860;54.284;10.158;2022-07-06T09:19:56;18.80;99.90
5675;DHT22;2860;54.284;10.158;2022-07-06T09:22:30;19.10;99.90
5675;DHT22;2860;54.284;10.158;2022-07-06T09:25:06;19.10;99.90
5675;DHT22;2860;54.284;10.158;2022-07-06T09:27:37;19.20;99.90
5675;DHT22;2860;54.284;10.158;2022-07-06T09:30:03;19.90;99.90
5675;DHT22;2860;54.284;10.158;2022-07-06T09:32:30;20.30;99.90
5675;DHT22;2860;54.284;10.158;2022-07-06T09:34:56;20.70;99.90
5675;DHT22;2860;54.284;10.158;2022-07-06T09:37:21;20.80;99.90
5675;DHT22;2860;54.284;10.158;2022-07-06T09:39:49;20.80;99.90
5675;DHT22;2860;54.284;10.158;2022-07-06T09:42:14;20.60;99.90
5675;DHT22;2860;54.284;10.158;2022-07-06T09:44:41;20.40;99.90
5675;DHT22;2860;54.284;10.158;2022-07-06T09:47:11;20.30;99.90
5675;DHT22;2860;54.284;10.158;2022-07-06T09:49:38;20.10;99.90
5675;DHT22;2860;54.284;10.158;2022-07-06T09:52:13;20.10;99.90
5675;DHT22;2860;54.284;10.158;2022-07-06T09:54:39;20.10;99.90
5675;DHT22;2860;54.284;10.158;2022-07-06T09:57:06;20.00;99.90
5675;DHT22;2860;54.284;10.158;2022-07-06T09:59:33;19.80;99.90
5675;DHT22;2860;54.284;10.158;2022-07-06T10:02:01;19.50;99.90
5675;DHT22;2860;54.284;10.158;2022-07-06T10:04:28;19.40;99.90
5675;DHT22;2860;54.284;10.158;2022-07-06T10:06:55;19.30;99.90
5675;DHT22;2860;54.284;10.158;2022-07-06T10:09:23;19.30;99.90
5675;DHT22;2860;54.284;10.158;2022-07-06T10:11:53;19.40;99.90
5675;DHT22;2860;54.284;10.158;2022-07-06T10:14:22;19.60;99.90
5675;DHT22;2860;54.284;10.158;2022-07-06T10:16:48;19.80;99.90
5675;DHT22;2860;54.284;10.158;2022-07-06T10:19:15;20.10;99.90
5675;DHT22;2860;54.284;10.158;2022-07-06T10:21:41;20.40;99.90
5675;DHT22;2860;54.284;10.158;2022-07-06T10:24:07;20.60;99.90
5675;DHT22;2860;54.284;10.158;2022-07-06T10:26:35;20.80;99.90
5675;DHT22;2860;54.284;10.158;2022-07-06T10:29:02;21.20;99.90
5675;DHT22;2860;54.284;10.158;2022-07-06T10:31:29;21.70;99.90
5675;DHT22;2860;54.284;10.158;2022-07-06T10:33:57;21.50;99.90
5675;DHT22;2860;54.284;10.158;2022-07-06T10:36:25;21.20;99.90
5675;DHT22;2860;54.284;10.158;2022-07-06T10:38:52;20.70;99.90
5675;DHT22;2860;54.284;10.158;2022-07-06T10:41:18;20.20;99.90
5675;DHT22;2860;54.284;10.158;2022-07-06T10:43:45;19.90;99.90
5675;DHT22;2860;54.284;10.158;2022-07-06T10:46:15;19.60;99.90
5675;DHT22;2860;54.284;10.158;2022-07-06T10:48:43;19.50;99.90
5675;DHT22;2860;54.284;10.158;2022-07-06T10:51:11;19.40;99.90
5675;DHT22;2860;54.284;10.158;2022-07-06T10:53:39;19.30;99.90
5675;DHT22;2860;54.284;10.158;2022-07-06T10:56:10;19.20;99.90
5675;DHT22;2860;54.284;10.158;2022-07-06T11:01:01;19.20;99.90
5675;DHT22;2860;54.284;10.158;2022-07-06T11:06:33;19.50;99.90
5675;DHT22;2860;54.284;10.158;2022-07-06T11:09:04;19.90;99.90
5675;DHT22;2860;54.284;10.158;2022-07-06T11:14:12;20.50;99.90
5675;DHT22;2860;54.284;10.158;2022-07-06T11:19:20;20.60;99.90
5675;DHT22;2860;54.284;10.158;2022-07-06T11:22:10;20.70;99.90
5675;DHT22;2860;54.284;10.158;2022-07-06T11:24:38;20.80;99.90
5675;DHT22;2860;54.284;10.158;2022-07-06T11:27:04;20.80;99.90
5675;DHT22;2860;54.284;10.158;2022-07-06T11:29:33;20.70;99.90
5675;DHT22;2860;54.284;10.158;2022-07-06T11:32:00;20.70;99.90
5675;DHT22;2860;54.284;10.158;2022-07-06T11:34:31;21.00;99.90
5675;DHT22;2860;54.284;10.158;2022-07-06T11:37:04;21.20;99.90
5675;DHT22;2860;54.284;10.158;2022-07-06T11:39:34;21.40;99.90
5675;DHT22;2860;54.284;10.158;2022-07-06T11:42:00;21.30;99.90
5675;DHT22;2860;54.284;10.158;2022-07-06T11:44:26;20.90;99.90
5675;DHT22;2860;54.284;10.158;2022-07-06T11:46:52;20.40;99.90
5675;DHT22;2860;54.284;10.158;2022-07-06T11:49:18;19.90;99.90
5675;DHT22;2860;54.284;10.158;2022-07-06T11:51:45;19.40;99.90
5675;DHT22;2860;54.284;10.158;2022-07-06T11:54:13;19.00;99.90
5675;DHT22;2860;54.284;10.158;2022-07-06T11:56:47;18.70;99.90
5675;DHT22;2860;54.284;10.158;2022-07-06T11:59:15;18.60;99.90
5675;DHT22;2860;54.284;10.158;2022-07-06T12:01:41;18.60;99.90
5675;DHT22;2860;54.284;10.158;2022-07-06T12:04:09;18.70;99.90
5675;DHT22;2860;54.284;10.158;2022-07-06T12:06:36;18.90;99.90
5675;DHT22;2860;54.284;10.158;2022-07-06T12:09:02;19.10;99.90
5675;DHT22;2860;54.284;10.158;2022-07-06T12:11:34;19.40;99.90
5675;DHT22;2860;54.284;10.158;2022-07-06T12:14:12;19.90;99.90
5675;DHT22;2860;54.284;10.158;2022-07-06T12:16:41;20.40;99.90
5675;DHT22;2860;54.284;10.158;2022-07-06T12:19:07;20.70;99.90
5675;DHT22;2860;54.284;10.158;2022-07-06T12:21:34;20.80;99.90
5675;DHT22;2860;54.284;10.158;2022-07-06T12:24:00;20.70;99.90
5675;DHT22;2860;54.284;10.158;2022-07-06T12:26:28;20.50;99.90
5675;DHT22;2860;54.284;10.158;2022-07-06T12:29:03;20.50;99.90
5675;DHT22;2860;54.284;10.158;2022-07-06T12:31:35;20.50;99.90
5675;DHT22;2860;54.284;10.158;2022-07-06T12:34:01;20.60;99.90
5675;DHT22;2860;54.284;10.158;2022-07-06T12:36:27;20.80;99.90
5675;DHT22;2860;54.284;10.158;2022-07-06T12:38:53;21.00;99.90
5675;DHT22;2860;54.284;10.158;2022-07-06T12:41:30;21.00;99.90
5675;DHT22;2860;54.284;10.158;2022-07-06T12:44:08;21.10;99.90
5675;DHT22;2860;54.284;10.158;2022-07-06T12:46:38;21.30;99.90
5675;DHT22;2860;54.284;10.158;2022-07-06T12:54:26;21.40;99.90
5675;DHT22;2860;54.284;10.158;2022-07-06T12:57:00;21.40;99.90
5675;DHT22;2860;54.284;10.158;2022-07-06T12:59:26;21.40;99.90
5675;DHT22;2860;54.284;10.158;2022-07-06T13:01:52;21.50;99.90
5675;DHT22;2860;54.284;10.158;2022-07-06T13:04:22;21.90;99.90
5675;DHT22;2860;54.284;10.158;2022-07-06T13:06:48;22.10;99.90
5675;DHT22;2860;54.284;10.158;2022-07-06T13:09:14;22.30;99.90
5675;DHT22;2860;54.284;10.158;2022-07-06T13:11:41;22.50;99.90
5675;DHT22;2860;54.284;10.158;2022-07-06T13:14:06;22.50;99.90
5675;DHT22;2860;54.284;10.158;2022-07-06T13:16:34;22.40;99.90
5675;DHT22;2860;54.284;10.158;2022-07-06T13:19:01;22.20;99.90
5675;DHT22;2860;54.284;10.158;2022-07-06T13:21:26;22.00;99.90
5675;DHT22;2860;54.284;10.158;2022-07-06T13:23:52;21.80;99.90
5675;DHT22;2860;54.284;10.158;2022-07-06T13:26:17;21.70;99.90
5675;DHT22;2860;54.284;10.158;2022-07-06T13:28:43;21.80;99.90
5675;DHT22;2860;54.284;10.158;2022-07-06T13:31:09;21.80;99.90
5675;DHT22;2860;54.284;10.158;2022-07-06T13:33:34;21.90;99.90
5675;DHT22;2860;54.284;10.158;2022-07-06T13:36:00;21.70;99.90
5675;DHT22;2860;54.284;10.158;2022-07-06T13:38:26;21.50;99.90
5675;DHT22;2860;54.284;10.158;2022-07-06T13:40:52;21.40;99.90
5675;DHT22;2860;54.284;10.158;2022-07-06T13:43:18;21.60;99.90
5675;DHT22;2860;54.284;10.158;2022-07-06T13:45:46;21.70;99.90
5675;DHT22;2860;54.284;10.158;2022-07-06T13:48:11;21.70;99.90
5675;DHT22;2860;54.284;10.158;2022-07-06T13:50:37;21.70;99.90
5675;DHT22;2860;54.284;10.158;2022-07-06T13:53:03;21.50;99.90
5675;DHT22;2860;54.284;10.158;2022-07-06T13:55:29;21.50;99.90
5675;DHT22;2860;54.284;10.158;2022-07-06T13:57:55;21.60;99.90
5675;DHT22;2860;54.284;10.158;2022-07-06T14:00:21;21.60;99.90
5675;DHT22;2860;54.284;10.158;2022-07-06T14:02:47;21.70;99.90
5675;DHT22;2860;54.284;10.158;2022-07-06T14:05:12;22.00;99.90
5675;DHT22;2860;54.284;10.158;2022-07-06T14:07:38;21.90;99.90
5675;DHT22;2860;54.284;10.158;2022-07-06T14:10:04;21.70;99.90
5675;DHT22;2860;54.284;10.158;2022-07-06T14:12:30;21.40;99.90
5675;DHT22;2860;54.284;10.158;2022-07-06T14:14:55;21.00;99.90
5675;DHT22;2860;54.284;10.158;2022-07-06T14:17:21;20.90;99.90
5675;DHT22;2860;54.284;10.158;2022-07-06T14:19:48;20.90;99.90
5675;DHT22;2860;54.284;10.158;2022-07-06T14:22:13;21.10;99.90
5675;DHT22;2860;54.284;10.158;2022-07-06T14:24:39;21.10;99.90
5675;DHT22;2860;54.284;10.158;2022-07-06T14:27:04;21.00;99.90
5675;DHT22;2860;54.284;10.158;2022-07-06T14:29:30;20.90;99.90
5675;DHT22;2860;54.284;10.158;2022-07-06T14:31:55;20.90;99.90
5675;DHT22;2860;54.284;10.158;2022-07-06T14:34:21;21.10;99.90
5675;DHT22;2860;54.284;10.158;2022-07-06T14:36:47;21.40;99.90
5675;DHT22;2860;54.284;10.158;2022-07-06T14:39:12;21.70;99.90
5675;DHT22;2860;54.284;10.158;2022-07-06T14:41:38;21.80;99.90
5675;DHT22;2860;54.284;10.158;2022-07-06T14:44:04;22.00;99.90
5675;DHT22;2860;54.284;10.158;2022-07-06T14:46:31;22.10;99.90
5675;DHT22;2860;54.284;10.158;2022-07-06T14:48:56;21.80;99.90
5675;DHT22;2860;54.284;10.158;2022-07-06T14:51:22;21.60;99.90
5675;DHT22;2860;54.284;10.158;2022-07-06T14:53:47;21.70;99.90
5675;DHT22;2860;54.284;10.158;2022-07-06T14:56:13;21.60;99.90
5675;DHT22;2860;54.284;10.158;2022-07-06T14:58:39;21.40;99.90
5675;DHT22;2860;54.284;10.158;2022-07-06T15:01:04;21.30;99.90
5675;DHT22;2860;54.284;10.158;2022-07-06T15:03:30;21.30;99.90
5675;DHT22;2860;54.284;10.158;2022-07-06T15:05:55;21.10;99.90
5675;DHT22;2860;54.284;10.158;2022-07-06T15:08:21;21.10;99.90
5675;DHT22;2860;54.284;10.158;2022-07-06T15:10:47;21.00;99.90
5675;DHT22;2860;54.284;10.158;2022-07-06T15:13:13;21.00;99.90
5675;DHT22;2860;54.284;10.158;2022-07-06T15:15:39;20.90;99.90
5675;DHT22;2860;54.284;10.158;2022-07-06T15:18:04;20.80;99.90
5675;DHT22;2860;54.284;10.158;2022-07-06T15:20:30;20.80;99.90
5675;DHT22;2860;54.284;10.158;2022-07-06T15:22:56;20.60;99.90
5675;DHT22;2860;54.284;10.158;2022-07-06T15:25:21;20.40;99.90
5675;DHT22;2860;54.284;10.158;2022-07-06T15:27:50;20.20;99.90
5675;DHT22;2860;54.284;10.158;2022-07-06T15:30:16;20.00;99.90
5675;DHT22;2860;54.284;10.158;2022-07-06T15:32:42;19.90;99.90
5675;DHT22;2860;54.284;10.158;2022-07-06T15:35:07;20.00;99.90
5675;DHT22;2860;54.284;10.158;2022-07-06T15:37:34;20.20;99.90
5675;DHT22;2860;54.284;10.158;2022-07-06T15:40:00;20.30;99.90
5675;DHT22;2860;54.284;10.158;2022-07-06T15:42:26;20.50;99.90
5675;DHT22;2860;54.284;10.158;2022-07-06T15:44:52;20.60;99.90
5675;DHT22;2860;54.284;10.158;2022-07-06T15:47:18;20.60;99.90
5675;DHT22;2860;54.284;10.158;2022-07-06T15:49:45;20.50;99.90
5675;DHT22;2860;54.284;10.158;2022-07-06T15:52:11;20.60;99.90
5675;DHT22;2860;54.284;10.158;2022-07-06T15:54:37;20.70;99.90
5675;DHT22;2860;54.284;10.158;2022-07-06T15:57:04;21.00;99.90